Time;durP1;ratioP1;P1;durP2;ratioP2;P2;SDS_P1;SDS_P2;PMS_P1;PMS_P2;Temp;Humidity;BMP_temperature;BMP_pressure;BME280_temperature;BME280_humidity;BME280_pressure;Samples;Min_cycle;Max_cycle;Signal;HPM_P1;HPM_P2
2023/06/05 00:00:31;;;;;;;;;;;;;;;;;;5055107;28;790;-64
2023/06/05 00:02:56;;;;;;;;;;;;;;;;;;5055029;28;1156;-64
2023/06/05 00:05:25;;;;;;;;;;;;;;;;;;5054504;28;920;-64
2023/06/05 00:07:50;;;;;;;;;;;;;;;;;;5072932;28;829;-64
2023/06/05 00:10:15;;;;;;;;;;;;;;;;;;5037398;28;1213;-64
2023/06/05 00:12:41;;;;;;;;;;;;;;;;;;5054379;28;1183;-64
2023/06/05 00:15:06;;;;;;;;;;;;;;;;;;5037914;28;1335;-64
2023/06/05 00:17:31;;;;;;;;;;;;;;;;;;5072467;28;1977;-64
2023/06/05 00:20:00;;;;;;;;;;;;;;;;;;5054691;28;920;-64
2023/06/05 00:22:26;;;;;;;;;;;;;;;;;;5053965;28;1314;-64
2023/06/05 00:24:52;;;;;;;;;;;;;;;;;;5072451;28;849;-64
2023/06/05 00:27:17;;;;;;;;;;;;;;;;;;5037756;28;1232;-64
2023/06/05 00:29:43;;;;;;;;;;;;;;;;;;5072005;28;786;-64
2023/06/05 00:32:08;;;;;;;;;;;;;;;;;;5072136;28;774;-63
2023/06/05 00:34:33;;;;;;;;;;;;;;;;;;5053725;28;856;-64
2023/06/05 00:36:59;;;;;;;;;;;;;;;;;;5072163;28;1905;-64
2023/06/05 00:39:24;;;;;;;;;;;;;;;;;;5071907;28;836;-64
2023/06/05 00:41:50;;;;;;;;;;;;;;;;;;5073045;28;868;-64
2023/06/05 00:44:17;;;;;;;;;;;;;;;;;;5072932;28;852;-65
2023/06/05 00:46:42;;;;;;;;;;;;;;;;;;5072613;28;827;-64
2023/06/05 00:49:08;;;;;;;;;;;;;;;;;;5054710;28;829;-64
2023/06/05 00:51:34;;;;;;;;;;;;;;;;;;5054396;28;848;-64
2023/06/05 00:53:59;;;;;;;;;;;;;;;;;;5072339;28;829;-64
2023/06/05 00:56:25;;;;;;;;;;;;;;;;;;5071214;28;2013;-64
2023/06/05 00:58:52;;;;;;;;;;;;;;;;;;5071805;28;852;-64
2023/06/05 01:01:19;;;;;;;;;;;;;;;;;;5071531;28;951;-64
2023/06/05 01:03:45;;;;;;;;;;;;;;;;;;5071683;28;1199;-64
2023/06/05 01:06:11;;;;;;;;;;;;;;;;;;5053630;28;1327;-64
2023/06/05 01:08:41;;;;;;;;;;;;;;;;;;5053665;28;1077;-64
2023/06/05 01:11:13;;;;;;;;;;;;;;;;;;5053742;28;734;-64
2023/06/05 01:13:43;;;;;;;;;;;;;;;;;;5071666;28;844;-64
2023/06/05 01:16:09;;;;;;;;;;;;;;;;;;5071628;28;1906;-64
2023/06/05 01:18:40;;;;;;;;;;;;;;;;;;5071536;28;809;-64
2023/06/05 01:21:12;;;;;;;;;;;;;;;;;;5071154;28;896;-64
2023/06/05 01:23:44;;;;;;;;;;;;;;;;;;5071388;28;925;-64
2023/06/05 01:26:12;;;;;;;;;;;;;;;;;;5071422;28;872;-64
2023/06/05 01:28:38;;;;;;;;;;;;;;;;;;5071340;28;789;-64
2023/06/05 01:31:13;;;;;;;;;;;;;;;;;;5071437;28;841;-64
2023/06/05 01:33:56;;;;;;;;;;;;;;;;;;5070813;28;861;-64
2023/06/05 01:36:22;;;;;;;;;;;;;;;;;;5070862;28;1901;-64
2023/06/05 01:38:49;;;;;;;;;;;;;;;;;;5071012;28;960;-64
2023/06/05 01:41:15;;;;;;;;;;;;;;;;;;5070903;28;884;-64
2023/06/05 01:43:41;;;;;;;;;;;;;;;;;;5071225;28;916;-64
2023/06/05 01:46:07;;;;;;;;;;;;;;;;;;5053242;28;1160;-64
2023/06/05 01:48:33;;;;;;;;;;;;;;;;;;5053223;28;814;-65
2023/06/05 01:50:59;;;;;;;;;;;;;;;;;;5053388;28;1256;-64
2023/06/05 01:53:25;;;;;;;;;;;;;;;;;;5071220;28;896;-64
2023/06/05 01:55:53;;;;;;;;;;;;;;;;;;5052499;28;1890;-64
2023/06/05 01:58:21;;;;;;;;;;;;;;;;;;5052423;28;1527;-64
2023/06/05 02:00:46;;;;;;;;;;;;;;;;;;5053255;28;1342;-64
2023/06/05 02:03:11;;;;;;;;;;;;;;;;;;5036864;28;1209;-64
2023/06/05 02:05:36;;;;;;;;;;;;;;;;;;5053461;28;1342;-64
2023/06/05 02:08:04;;;;;;;;;;;;;;;;;;5071430;28;1134;-64
2023/06/05 02:10:31;;;;;;;;;;;;;;;;;;5071138;28;837;-64
2023/06/05 02:12:56;;;;;;;;;;;;;;;;;;5071442;28;861;-64
2023/06/05 02:15:22;;;;;;;;;;;;;;;;;;5070876;28;1910;-64
2023/06/05 02:17:53;;;;;;;;;;;;;;;;;;5053373;28;1314;-64
2023/06/05 02:20:19;;;;;;;;;;;;;;;;;;5071081;28;880;-64
2023/06/05 02:22:45;;;;;;;;;;;;;;;;;;5052599;28;1351;-64
2023/06/05 02:25:11;;;;;;;;;;;;;;;;;;5036528;28;1479;-64
2023/06/05 02:27:36;;;;;;;;;;;;;;;;;;5071280;28;908;-64
2023/06/05 02:30:02;;;;;;;;;;;;;;;;;;5071036;28;958;-64
2023/06/05 02:32:28;;;;;;;;;;;;;;;;;;5070788;28;892;-64
2023/06/05 02:34:56;;;;;;;;;;;;;;;;;;5070729;28;829;-64
2023/06/05 02:37:22;;;;;;;;;;;;;;;;;;5071301;28;1905;-64
2023/06/05 02:39:47;;;;;;;;;;;;;;;;;;5071435;28;833;-64
2023/06/05 02:42:13;;;;;;;;;;;;;;;;;;5071650;28;1085;-64
2023/06/05 02:44:38;;;;;;;;;;;;;;;;;;5036452;28;1060;-64
2023/06/05 02:47:03;;;;;;;;;;;;;;;;;;5071253;28;924;-64
2023/06/05 02:49:29;;;;;;;;;;;;;;;;;;5036519;28;1347;-64
2023/06/05 02:51:55;;;;;;;;;;;;;;;;;;5052423;28;780;-64
2023/06/05 02:54:20;;;;;;;;;;;;;;;;;;5053748;28;1137;-66
2023/06/05 02:56:45;;;;;;;;;;;;;;;;;;5039198;28;1902;-67
2023/06/05 02:59:11;;;;;;;;;;;;;;;;;;5056438;28;1054;-67
2023/06/05 03:01:36;;;;;;;;;;;;;;;;;;5055548;28;833;-67
2023/06/05 03:04:04;;;;;;;;;;;;;;;;;;5074297;28;1097;-67
2023/06/05 03:06:33;;;;;;;;;;;;;;;;;;5073810;28;813;-67
2023/06/05 03:08:59;;;;;;;;;;;;;;;;;;5056797;28;849;-67
2023/06/05 03:11:25;;;;;;;;;;;;;;;;;;5073674;28;765;-67
2023/06/05 03:13:50;;;;;;;;;;;;;;;;;;5037406;28;1268;-67
2023/06/05 03:16:17;;;;;;;;;;;;;;;;;;5055191;28;1971;-67
2023/06/05 03:18:42;;;;;;;;;;;;;;;;;;5055828;28;972;-67
2023/06/05 03:21:10;;;;;;;;;;;;;;;;;;5055870;28;1255;-67
2023/06/05 03:23:35;;;;;;;;;;;;;;;;;;5055688;28;981;-67
2023/06/05 03:26:01;;;;;;;;;;;;;;;;;;5073523;28;797;-67
2023/06/05 03:28:30;;;;;;;;;;;;;;;;;;5055864;28;983;-66
2023/06/05 03:30:55;;;;;;;;;;;;;;;;;;5073591;28;892;-67
2023/06/05 03:33:20;;;;;;;;;;;;;;;;;;5055370;28;1322;-67
2023/06/05 03:35:49;;;;;;;;;;;;;;;;;;5073597;28;1886;-66
2023/06/05 03:38:14;;;;;;;;;;;;;;;;;;5039553;28;1271;-67
2023/06/05 03:40:39;;;;;;;;;;;;;;;;;;5054805;28;868;-67
2023/06/05 03:43:05;;;;;;;;;;;;;;;;;;5073038;28;770;-67
2023/06/05 03:45:31;;;;;;;;;;;;;;;;;;5055638;28;1288;-67
2023/06/05 03:47:59;;;;;;;;;;;;;;;;;;5073370;28;877;-67
2023/06/05 03:50:25;;;;;;;;;;;;;;;;;;5072576;28;872;-68
2023/06/05 03:52:52;;;;;;;;;;;;;;;;;;5054942;28;1247;-68
2023/06/05 03:55:18;;;;;;;;;;;;;;;;;;5055663;28;1409;-68
2023/06/05 03:57:44;;;;;;;;;;;;;;;;;;5073027;28;1902;-67
2023/06/05 04:00:09;;;;;;;;;;;;;;;;;;5055256;28;817;-67
2023/06/05 04:02:36;;;;;;;;;;;;;;;;;;5072880;28;1181;-67
2023/06/05 04:05:02;;;;;;;;;;;;;;;;;;5072404;28;845;-67
2023/06/05 04:07:28;;;;;;;;;;;;;;;;;;5038479;28;1125;-67
2023/06/05 04:09:53;;;;;;;;;;;;;;;;;;5055373;28;884;-67
2023/06/05 04:12:19;;;;;;;;;;;;;;;;;;5073645;28;801;-67
2023/06/05 04:14:45;;;;;;;;;;;;;;;;;;5073339;28;860;-68
2023/06/05 04:17:12;;;;;;;;;;;;;;;;;;5056208;28;1937;-67
2023/06/05 04:19:37;;;;;;;;;;;;;;;;;;5038780;28;1267;-67
2023/06/05 04:22:03;;;;;;;;;;;;;;;;;;5073897;28;875;-66
2023/06/05 04:24:29;;;;;;;;;;;;;;;;;;5054657;28;1010;-68
2023/06/05 04:26:54;;;;;;;;;;;;;;;;;;5054345;28;1366;-67
2023/06/05 04:29:20;;;;;;;;;;;;;;;;;;5054935;28;1330;-68
2023/06/05 04:31:50;;;;;;;;;;;;;;;;;;5054078;28;778;-67
2023/06/05 04:34:17;;;;;;;;;;;;;;;;;;5072042;28;840;-68
2023/06/05 04:36:43;;;;;;;;;;;;;;;;;;5054180;28;1953;-68
2023/06/05 04:39:14;;;;;;;;;;;;;;;;;;5072330;28;943;-67
2023/06/05 04:41:44;;;;;;;;;;;;;;;;;;5038379;28;1232;-67
2023/06/05 04:44:10;;;;;;;;;;;;;;;;;;5038842;28;1213;-67
2023/06/05 04:46:38;;;;;;;;;;;;;;;;;;5071815;28;1188;-67
2023/06/05 04:49:04;;;;;;;;;;;;;;;;;;5083352;28;1160;-67
2023/06/05 04:51:29;;;;;;;;;;;;;;;;;;5071813;28;1357;-66
2023/06/05 04:53:55;;;;;;;;;;;;;;;;;;5089868;28;1208;-67
2023/06/05 04:56:24;;;;;;;;;;;;;;;;;;5091462;28;1922;-67
2023/06/05 04:58:51;;;;;;;;;;;;;;;;;;5073765;28;829;-67
2023/06/05 05:01:16;;;;;;;;;;;;;;;;;;5093014;28;856;-67
2023/06/05 05:03:42;;;;;;;;;;;;;;;;;;5073499;28;1323;-67
2023/06/05 05:06:07;;;;;;;;;;;;;;;;;;5092454;28;869;-67
2023/06/05 05:08:33;;;;;;;;;;;;;;;;;;5056995;28;1511;-67
2023/06/05 05:10:58;;;;;;;;;;;;;;;;;;5056895;28;1228;-67
2023/06/05 05:13:23;;;;;;;;;;;;;;;;;;5057102;28;1232;-67
2023/06/05 05:15:52;;;;;;;;;;;;;;;;;;5091489;28;1971;-66
2023/06/05 05:18:18;;;;;;;;;;;;;;;;;;5091675;28;872;-67
2023/06/05 05:20:43;;;;;;;;;;;;;;;;;;5073126;28;685;-67
2023/06/05 05:23:09;;;;;;;;;;;;;;;;;;5057534;28;1307;-67
2023/06/05 05:25:34;;;;;;;;;;;;;;;;;;5074025;28;872;-66
2023/06/05 05:27:59;;;;;;;;;;;;;;;;;;5092992;28;890;-66
2023/06/05 05:30:24;;;;;;;;;;;;;;;;;;5092581;28;1266;-66
2023/06/05 05:32:50;;;;;;;;;;;;;;;;;;5074476;28;1286;-66
2023/06/05 05:35:15;;;;;;;;;;;;;;;;;;5091855;28;831;-67
2023/06/05 05:37:40;;;;;;;;;;;;;;;;;;5072995;28;1906;-67
2023/06/05 05:40:06;;;;;;;;;;;;;;;;;;5091534;28;851;-68
2023/06/05 05:42:32;;;;;;;;;;;;;;;;;;5091949;28;832;-68
2023/06/05 05:44:57;;;;;;;;;;;;;;;;;;5091361;28;751;-68
2023/06/05 05:47:22;;;;;;;;;;;;;;;;;;5056906;28;1397;-68
2023/06/05 05:49:48;;;;;;;;;;;;;;;;;;5072651;28;924;-68
2023/06/05 05:52:13;;;;;;;;;;;;;;;;;;5073300;28;891;-68
2023/06/05 05:54:38;;;;;;;;;;;;;;;;;;5090782;28;829;-68
2023/06/05 05:57:04;;;;;;;;;;;;;;;;;;5073589;28;1894;-68
2023/06/05 05:59:30;;;;;;;;;;;;;;;;;;5073577;28;916;-68
2023/06/05 06:01:56;;;;;;;;;;;;;;;;;;5091576;28;832;-68
2023/06/05 06:04:21;;;;;;;;;;;;;;;;;;5072909;28;1195;-69
2023/06/05 06:06:52;;;;;;;;;;;;;;;;;;5091236;28;861;-69
2023/06/05 06:09:18;;;;;;;;;;;;;;;;;;5074671;28;916;-70
2023/06/05 06:11:43;;;;;;;;;;;;;;;;;;5091193;28;903;-70
2023/06/05 06:14:10;;;;;;;;;;;;;;;;;;5073134;28;1380;-70
2023/06/05 06:16:36;;;;;;;;;;;;;;;;;;5056190;28;1902;-70
2023/06/05 06:19:01;;;;;;;;;;;;;;;;;;5073228;28;912;-69
2023/06/05 06:21:27;;;;;;;;;;;;;;;;;;5072944;28;1203;-69
2023/06/05 06:23:52;;;;;;;;;;;;;;;;;;5090670;28;947;-69
2023/06/05 06:26:17;;;;;;;;;;;;;;;;;;5073403;28;820;-70
2023/06/05 06:28:42;;;;;;;;;;;;;;;;;;5093314;28;959;-69
2023/06/05 06:31:08;;;;;;;;;;;;;;;;;;5076767;28;825;-69
2023/06/05 06:33:36;;;;;;;;;;;;;;;;;;5060195;28;1227;-70
2023/06/05 06:36:02;;;;;;;;;;;;;;;;;;5060314;28;1959;-69
2023/06/05 06:38:30;;;;;;;;;;;;;;;;;;5095006;28;884;-69
2023/06/05 06:40:56;;;;;;;;;;;;;;;;;;5076045;28;1353;-70
2023/06/05 06:43:21;;;;;;;;;;;;;;;;;;5076671;28;876;-69
2023/06/05 06:45:47;;;;;;;;;;;;;;;;;;5094768;28;821;-69
2023/06/05 06:48:12;;;;;;;;;;;;;;;;;;5095436;28;884;-70
2023/06/05 06:50:38;;;;;;;;;;;;;;;;;;5076808;28;1238;-69
2023/06/05 06:53:03;;;;;;;;;;;;;;;;;;5095214;28;911;-69
2023/06/05 06:55:28;;;;;;;;;;;;;;;;;;5077359;28;952;-69
2023/06/05 06:57:54;;;;;;;;;;;;;;;;;;5095026;28;1898;-69
2023/06/05 07:00:20;;;;;;;;;;;;;;;;;;5095584;28;825;-69
2023/06/05 07:02:45;;;;;;;;;;;;;;;;;;5094492;28;1049;-69
2023/06/05 07:05:11;;;;;;;;;;;;;;;;;;5094685;28;781;-69
2023/06/05 07:07:36;;;;;;;;;;;;;;;;;;5094386;28;915;-69
2023/06/05 07:10:01;;;;;;;;;;;;;;;;;;5059342;28;1353;-69
2023/06/05 07:12:27;;;;;;;;;;;;;;;;;;5094521;28;864;-68
2023/06/05 07:14:54;;;;;;;;;;;;;;;;;;5093725;28;888;-70
2023/06/05 07:17:19;;;;;;;;;;;;;;;;;;5094651;28;1914;-70
2023/06/05 07:19:44;;;;;;;;;;;;;;;;;;5075848;28;1318;-70
2023/06/05 07:22:10;;;;;;;;;;;;;;;;;;5076107;28;1226;-70
2023/06/05 07:24:36;;;;;;;;;;;;;;;;;;5094560;28;1037;-70
2023/06/05 07:27:02;;;;;;;;;;;;;;;;;;5094150;28;888;-69
2023/06/05 07:29:28;;;;;;;;;;;;;;;;;;5094521;28;805;-70
2023/06/05 07:31:54;;;;;;;;;;;;;;;;;;5093749;28;872;-70
2023/06/05 07:34:20;;;;;;;;;;;;;;;;;;5094275;28;794;-70
2023/06/05 07:36:46;;;;;;;;;;;;;;;;;;5093831;28;1953;-70
2023/06/05 07:39:11;;;;;;;;;;;;;;;;;;5075857;28;1308;-70
2023/06/05 07:41:37;;;;;;;;;;;;;;;;;;5093464;28;774;-70
2023/06/05 07:44:03;;;;;;;;;;;;;;;;;;5093841;28;872;-70
2023/06/05 07:46:28;;;;;;;;;;;;;;;;;;5075708;28;1409;-70
2023/06/05 07:48:53;;;;;;;;;;;;;;;;;;5093682;28;829;-70
2023/06/05 07:51:18;;;;;;;;;;;;;;;;;;5094214;28;912;-70
2023/06/05 07:53:44;;;;;;;;;;;;;;;;;;5075615;28;849;-70
2023/06/05 07:56:11;;;;;;;;;;;;;;;;;;5094385;28;1894;-70
2023/06/05 07:58:37;;;;;;;;;;;;;;;;;;5093793;28;872;-70
2023/06/05 08:01:03;;;;;;;;;;;;;;;;;;5093775;28;876;-70
2023/06/05 08:03:29;;;;;;;;;;;;;;;;;;5075419;28;1132;-70
2023/06/05 08:05:54;;;;;;;;;;;;;;;;;;5058734;28;1330;-70
2023/06/05 08:08:19;;;;;;;;;;;;;;;;;;5094093;28;1054;-70
2023/06/05 08:10:45;;;;;;;;;;;;;;;;;;5093069;28;820;-70
2023/06/05 08:13:10;;;;;;;;;;;;;;;;;;5075896;28;1074;-70
2023/06/05 08:15:36;;;;;;;;;;;;;;;;;;5093192;28;1902;-70
2023/06/05 08:18:02;;;;;;;;;;;;;;;;;;5093731;28;785;-70
2023/06/05 08:20:27;;;;;;;;;;;;;;;;;;5075952;28;829;-70
2023/06/05 08:22:52;;;;;;;;;;;;;;;;;;5074568;28;1377;-70
2023/06/05 08:25:18;;;;;;;;;;;;;;;;;;5075103;28;1175;-70
2023/06/05 08:27:43;;;;;;;;;;;;;;;;;;5093560;28;865;-70
2023/06/05 08:30:09;;;;;;;;;;;;;;;;;;5075123;28;943;-70
2023/06/05 08:32:34;;;;;;;;;;;;;;;;;;5093277;28;923;-70
2023/06/05 08:34:59;;;;;;;;;;;;;;;;;;5093003;28;805;-70
2023/06/05 08:37:25;;;;;;;;;;;;;;;;;;5074619;28;1989;-70
2023/06/05 08:39:50;;;;;;;;;;;;;;;;;;5077931;28;1263;-70
2023/06/05 08:42:18;;;;;;;;;;;;;;;;;;5052789;28;1208;-70
2023/06/05 08:44:49;;;;;;;;;;;;;;;;;;5071128;28;1240;-70
2023/06/05 08:47:15;;;;;;;;;;;;;;;;;;5081578;28;1140;-69
2023/06/05 08:49:41;;;;;;;;;;;;;;;;;;5071983;28;1156;-70
2023/06/05 08:52:07;;;;;;;;;;;;;;;;;;5090802;28;1152;-70
2023/06/05 08:54:35;;;;;;;;;;;;;;;;;;5091463;28;821;-70
2023/06/05 08:57:02;;;;;;;;;;;;;;;;;;5090730;28;1901;-70
2023/06/05 08:59:28;;;;;;;;;;;;;;;;;;5072954;28;850;-71
2023/06/05 09:01:53;;;;;;;;;;;;;;;;;;5073637;28;1232;-70
2023/06/05 09:04:19;;;;;;;;;;;;;;;;;;5056468;28;1208;-70
2023/06/05 09:06:47;;;;;;;;;;;;;;;;;;5073703;28;837;-70
2023/06/05 09:09:14;;;;;;;;;;;;;;;;;;5073784;28;798;-69
2023/06/05 09:11:40;;;;;;;;;;;;;;;;;;5092232;28;928;-69
2023/06/05 09:14:05;;;;;;;;;;;;;;;;;;5091573;28;766;-70
2023/06/05 09:16:37;;;;;;;;;;;;;;;;;;5092229;28;1969;-70
2023/06/05 09:19:03;;;;;;;;;;;;;;;;;;5091499;28;766;-70
2023/06/05 09:21:30;;;;;;;;;;;;;;;;;;5056755;28;1410;-70
2023/06/05 09:24:15;;;;;;;;;;;;;;;;;;5091860;28;1017;-69
2023/06/05 09:26:47;;;;;;;;;;;;;;;;;;5073442;28;1287;-70
2023/06/05 09:29:13;;;;;;;;;;;;;;;;;;5092018;28;778;-70
2023/06/05 09:31:44;;;;;;;;;;;;;;;;;;5091936;28;912;-70
2023/06/05 09:34:09;;;;;;;;;;;;;;;;;;5073616;28;1521;-70
2023/06/05 09:36:44;;;;;;;;;;;;;;;;;;5091631;28;1957;-70
2023/06/05 09:39:16;;;;;;;;;;;;;;;;;;5073159;28;916;-69
2023/06/05 09:41:49;;;;;;;;;;;;;;;;;;5073546;28;857;-70
2023/06/05 09:44:15;;;;;;;;;;;;;;;;;;5091382;28;915;-69
2023/06/05 09:46:55;;;;;;;;;;;;;;;;;;5073858;28;1145;-69
2023/06/05 09:49:25;;;;;;;;;;;;;;;;;;5073780;28;1329;-70
2023/06/05 09:51:50;;;;;;;;;;;;;;;;;;5084552;28;1333;-69
2023/06/05 09:54:16;;;;;;;;;;;;;;;;;;5074799;28;1211;-69
2023/06/05 09:56:46;;;;;;;;;;;;;;;;;;5071436;28;1965;-69
2023/06/05 09:59:13;;;;;;;;;;;;;;;;;;5071752;28;856;-69
2023/06/05 10:01:40;;;;;;;;;;;;;;;;;;5071728;28;821;-71
2023/06/05 10:04:06;;;;;;;;;;;;;;;;;;5075835;28;1378;-70
2023/06/05 10:06:33;;;;;;;;;;;;;;;;;;5075705;28;1251;-69
2023/06/05 10:09:00;;;;;;;;;;;;;;;;;;5075061;28;1192;-69
2023/06/05 10:11:28;;;;;;;;;;;;;;;;;;5094003;28;1160;-69
2023/06/05 10:13:55;;;;;;;;;;;;;;;;;;5062847;28;1235;-68
2023/06/05 10:16:20;;;;;;;;;;;;;;;;;;5097721;28;1956;-69
2023/06/05 10:18:47;;;;;;;;;;;;;;;;;;5097042;28;1125;-68
2023/06/05 10:21:14;;;;;;;;;;;;;;;;;;5078118;28;1338;-70
2023/06/05 10:23:40;;;;;;;;;;;;;;;;;;5077735;28;1377;-68
2023/06/05 10:26:07;;;;;;;;;;;;;;;;;;5079494;28;1297;-69
2023/06/05 10:28:36;;;;;;;;;;;;;;;;;;5097678;28;912;-69
2023/06/05 10:31:08;;;;;;;;;;;;;;;;;;5079231;28;1357;-69
2023/06/05 10:33:51;;;;;;;;;;;;;;;;;;5097855;28;1194;-69
2023/06/05 10:36:40;;;;;;;;;;;;;;;;;;5076129;28;1897;-69
2023/06/05 10:39:07;;;;;;;;;;;;;;;;;;5069345;28;1192;-69
2023/06/05 10:41:33;;;;;;;;;;;;;;;;;;5097796;28;896;-69
2023/06/05 10:43:58;;;;;;;;;;;;;;;;;;5079067;28;849;-69
2023/06/05 10:46:26;;;;;;;;;;;;;;;;;;5098005;28;860;-69
2023/06/05 10:49:15;;;;;;;;;;;;;;;;;;5098273;28;762;-69
2023/06/05 10:51:47;;;;;;;;;;;;;;;;;;5098080;28;896;-69
2023/06/05 10:54:22;;;;;;;;;;;;;;;;;;5097938;28;830;-69
2023/06/05 10:56:57;;;;;;;;;;;;;;;;;;5097564;28;1893;-68
2023/06/05 10:59:23;;;;;;;;;;;;;;;;;;5079691;28;1310;-69
2023/06/05 11:04:58;;;;;;;;;;;;;;;;;;5097382;28;1366;-69
2023/06/05 11:07:26;;;;;;;;;;;;;;;;;;5081011;28;1176;-68
2023/06/05 11:10:05;;;;;;;;;;;;;;;;;;5097659;28;885;-69
2023/06/05 11:12:42;;;;;;;;;;;;;;;;;;5079480;28;1093;-68
2023/06/05 11:15:07;;;;;;;;;;;;;;;;;;5094367;28;915;-68
2023/06/05 11:17:34;;;;;;;;;;;;;;;;;;5076270;28;1906;-69
2023/06/05 11:20:00;;;;;;;;;;;;;;;;;;5076326;28;1117;-69
2023/06/05 11:22:26;;;;;;;;;;;;;;;;;;5094875;28;912;-69
2023/06/05 11:25:10;;;;;;;;;;;;;;;;;;5076644;28;1333;-69
2023/06/05 11:27:49;;;;;;;;;;;;;;;;;;5095455;28;805;-68
2023/06/05 11:30:15;;;;;;;;;;;;;;;;;;5095038;28;902;-69
2023/06/05 11:32:41;;;;;;;;;;;;;;;;;;5059934;28;1362;-69
2023/06/05 11:35:08;;;;;;;;;;;;;;;;;;5094047;28;979;-68
2023/06/05 11:37:34;;;;;;;;;;;;;;;;;;5094847;28;1971;-62
2023/06/05 11:40:00;;;;;;;;;;;;;;;;;;5093682;28;904;-62
2023/06/05 11:42:25;;;;;;;;;;;;;;;;;;5093595;28;911;-62
2023/06/05 11:44:50;;;;;;;;;;;;;;;;;;5074933;28;806;-63
2023/06/05 11:47:25;;;;;;;;;;;;;;;;;;5093875;28;828;-63
2023/06/05 11:49:51;;;;;;;;;;;;;;;;;;5092859;28;888;-63
2023/06/05 11:52:22;;;;;;;;;;;;;;;;;;5058512;28;1248;-63
2023/06/05 11:55:04;;;;;;;;;;;;;;;;;;5092843;28;849;-63
2023/06/05 11:57:38;;;;;;;;;;;;;;;;;;5093236;28;1913;-64
2023/06/05 12:00:05;;;;;;;;;;;;;;;;;;5093309;28;927;-63
2023/06/05 12:02:31;;;;;;;;;;;;;;;;;;5093311;28;923;-63
2023/06/05 12:04:56;;;;;;;;;;;;;;;;;;5092529;28;1183;-63
2023/06/05 12:07:28;;;;;;;;;;;;;;;;;;5092946;28;880;-64
2023/06/05 12:09:53;;;;;;;;;;;;;;;;;;5092709;28;825;-63
2023/06/05 12:12:20;;;;;;;;;;;;;;;;;;5092869;28;844;-63
2023/06/05 12:14:46;;;;;;;;;;;;;;;;;;5092946;28;903;-63
2023/06/05 12:17:11;;;;;;;;;;;;;;;;;;5075217;28;1963;-64
2023/06/05 12:19:36;;;;;;;;;;;;;;;;;;5058341;28;849;-63
2023/06/05 12:22:04;;;;;;;;;;;;;;;;;;5092823;28;813;-63
2023/06/05 12:24:29;;;;;;;;;;;;;;;;;;5093025;28;951;-63
2023/06/05 12:26:59;;;;;;;;;;;;;;;;;;5057478;28;896;-63
2023/06/05 12:29:24;;;;;;;;;;;;;;;;;;5093119;28;836;-63
2023/06/05 12:31:51;;;;;;;;;;;;;;;;;;5074655;28;1175;-64
2023/06/05 12:34:16;;;;;;;;;;;;;;;;;;5092519;28;836;-63
2023/06/05 12:36:42;;;;;;;;;;;;;;;;;;5092940;28;1890;-64
2023/06/05 12:39:12;;;;;;;;;;;;;;;;;;5092630;28;899;-63
2023/06/05 12:41:37;;;;;;;;;;;;;;;;;;5075359;28;1329;-63
2023/06/05 12:44:07;;;;;;;;;;;;;;;;;;5074804;28;1329;-64
2023/06/05 12:46:33;;;;;;;;;;;;;;;;;;5074628;28;1215;-63
2023/06/05 12:49:02;;;;;;;;;;;;;;;;;;5074770;28;1290;-63
2023/06/05 12:51:28;;;;;;;;;;;;;;;;;;5074642;28;1204;-64
2023/06/05 12:53:53;;;;;;;;;;;;;;;;;;5092766;28;876;-63
2023/06/05 12:56:23;;;;;;;;;;;;;;;;;;5073745;28;1894;-63
2023/06/05 12:58:48;;;;;;;;;;;;;;;;;;5092253;28;873;-63
2023/06/05 13:01:14;;;;;;;;;;;;;;;;;;5073947;28;1215;-63
2023/06/05 13:03:39;;;;;;;;;;;;;;;;;;5092128;28;1200;-63
2023/06/05 13:06:05;;;;;;;;;;;;;;;;;;5092680;28;900;-63
2023/06/05 13:08:31;;;;;;;;;;;;;;;;;;5074236;28;821;-63
2023/06/05 13:10:56;;;;;;;;;;;;;;;;;;5091950;28;921;-63
2023/06/05 13:13:21;;;;;;;;;;;;;;;;;;5073919;28;1292;-63
2023/06/05 13:15:47;;;;;;;;;;;;;;;;;;5091701;28;1971;-63
2023/06/05 13:18:12;;;;;;;;;;;;;;;;;;5092078;28;890;-63
2023/06/05 13:20:37;;;;;;;;;;;;;;;;;;5074039;28;960;-63
2023/06/05 13:23:03;;;;;;;;;;;;;;;;;;5090877;28;915;-63
2023/06/05 13:25:28;;;;;;;;;;;;;;;;;;5072527;28;837;-63
2023/06/05 13:27:53;;;;;;;;;;;;;;;;;;5055707;28;1215;-63
2023/06/05 13:30:18;;;;;;;;;;;;;;;;;;5091748;28;809;-62
2023/06/05 13:32:45;;;;;;;;;;;;;;;;;;5091423;28;912;-63
2023/06/05 13:35:11;;;;;;;;;;;;;;;;;;5091817;28;754;-63
2023/06/05 13:37:36;;;;;;;;;;;;;;;;;;5072479;28;1965;-62
2023/06/05 13:40:05;;;;;;;;;;;;;;;;;;5072644;28;955;-63
2023/06/05 13:42:31;;;;;;;;;;;;;;;;;;5073011;28;1357;-62
2023/06/05 13:44:56;;;;;;;;;;;;;;;;;;5090873;28;848;-62
2023/06/05 13:47:21;;;;;;;;;;;;;;;;;;5073266;28;809;-63
2023/06/05 13:49:47;;;;;;;;;;;;;;;;;;5090999;28;876;-63
2023/06/05 13:52:12;;;;;;;;;;;;;;;;;;5073523;28;912;-63
2023/06/05 13:54:38;;;;;;;;;;;;;;;;;;5073731;28;935;-63
2023/06/05 13:57:03;;;;;;;;;;;;;;;;;;5091562;28;1909;-62
2023/06/05 13:59:28;;;;;;;;;;;;;;;;;;5073608;28;1051;-63
2023/06/05 14:01:54;;;;;;;;;;;;;;;;;;5091908;28;883;-63
2023/06/05 14:04:20;;;;;;;;;;;;;;;;;;5091687;28;1263;-63
2023/06/05 14:06:45;;;;;;;;;;;;;;;;;;5073346;28;1338;-63
2023/06/05 14:09:11;;;;;;;;;;;;;;;;;;5092137;28;816;-64
2023/06/05 14:11:37;;;;;;;;;;;;;;;;;;5073212;28;1010;-63
2023/06/05 14:14:03;;;;;;;;;;;;;;;;;;5072734;28;1385;-63
2023/06/05 14:16:28;;;;;;;;;;;;;;;;;;5091156;28;1980;-63
2023/06/05 14:18:54;;;;;;;;;;;;;;;;;;5091334;28;825;-62
2023/06/05 14:21:19;;;;;;;;;;;;;;;;;;5091075;28;889;-63
2023/06/05 14:23:44;;;;;;;;;;;;;;;;;;5091354;28;907;-68
2023/06/05 14:26:10;;;;;;;;;;;;;;;;;;5091623;28;848;-68
2023/06/05 14:28:36;;;;;;;;;;;;;;;;;;5091308;28;975;-68
2023/06/05 14:31:01;;;;;;;;;;;;;;;;;;5091394;28;939;-68
2023/06/05 14:33:27;;;;;;;;;;;;;;;;;;5091563;28;788;-68
2023/06/05 14:35:52;;;;;;;;;;;;;;;;;;5072842;28;1906;-69
2023/06/05 14:38:17;;;;;;;;;;;;;;;;;;5056099;28;1367;-68
2023/06/05 14:40:43;;;;;;;;;;;;;;;;;;5090941;28;868;-68
2023/06/05 14:43:08;;;;;;;;;;;;;;;;;;5072645;28;825;-68
2023/06/05 14:45:33;;;;;;;;;;;;;;;;;;5072252;28;1493;-68
2023/06/05 14:47:59;;;;;;;;;;;;;;;;;;5090756;28;963;-69
2023/06/05 14:50:24;;;;;;;;;;;;;;;;;;5076012;28;1253;-69
2023/06/05 14:52:49;;;;;;;;;;;;;;;;;;5094741;28;793;-69
2023/06/05 14:55:15;;;;;;;;;;;;;;;;;;5095357;28;841;-69
2023/06/05 14:57:40;;;;;;;;;;;;;;;;;;5076583;28;1906;-69
2023/06/05 15:00:06;;;;;;;;;;;;;;;;;;5075567;28;1207;-69
2023/06/05 15:02:31;;;;;;;;;;;;;;;;;;5094144;28;896;-69
2023/06/05 15:04:58;;;;;;;;;;;;;;;;;;5075920;28;1361;-68
2023/06/05 15:07:24;;;;;;;;;;;;;;;;;;5094561;28;915;-69
2023/06/05 15:09:50;;;;;;;;;;;;;;;;;;5094383;28;864;-69
2023/06/05 15:12:15;;;;;;;;;;;;;;;;;;5076325;28;1369;-68
2023/06/05 15:14:41;;;;;;;;;;;;;;;;;;5076030;28;1238;-69
2023/06/05 15:17:08;;;;;;;;;;;;;;;;;;5074332;28;1956;-69
2023/06/05 15:19:33;;;;;;;;;;;;;;;;;;5046465;28;1077;-69
2023/06/05 15:21:58;;;;;;;;;;;;;;;;;;5056750;28;806;-69
2023/06/05 15:24:24;;;;;;;;;;;;;;;;;;5056491;28;911;-68
2023/06/05 15:26:49;;;;;;;;;;;;;;;;;;5056674;28;1011;-68
2023/06/05 15:29:14;;;;;;;;;;;;;;;;;;5057084;28;1305;-69
2023/06/05 15:31:40;;;;;;;;;;;;;;;;;;5056373;28;1368;-69
2023/06/05 15:34:05;;;;;;;;;;;;;;;;;;5056495;28;1165;-70
2023/06/05 15:36:30;;;;;;;;;;;;;;;;;;5074556;28;1955;-69
2023/06/05 15:38:57;;;;;;;;;;;;;;;;;;5056396;28;1175;-69
2023/06/05 15:41:23;;;;;;;;;;;;;;;;;;5056318;28;850;-69
2023/06/05 15:43:48;;;;;;;;;;;;;;;;;;5073898;28;814;-69
2023/06/05 15:46:13;;;;;;;;;;;;;;;;;;5074377;28;879;-69
2023/06/05 15:48:39;;;;;;;;;;;;;;;;;;5056123;28;1156;-69
2023/06/05 15:51:05;;;;;;;;;;;;;;;;;;5056192;28;1266;-69
2023/06/05 15:53:31;;;;;;;;;;;;;;;;;;5039351;28;1236;-69
2023/06/05 15:55:56;;;;;;;;;;;;;;;;;;5073578;28;1898;-70
2023/06/05 15:58:21;;;;;;;;;;;;;;;;;;5061999;28;1236;-69
2023/06/05 16:00:47;;;;;;;;;;;;;;;;;;5071385;28;1269;-69
2023/06/05 16:03:12;;;;;;;;;;;;;;;;;;5071052;28;1176;-69
2023/06/05 16:05:39;;;;;;;;;;;;;;;;;;5072969;28;1180;-69
2023/06/05 16:08:05;;;;;;;;;;;;;;;;;;5093426;28;793;-69
2023/06/05 16:10:30;;;;;;;;;;;;;;;;;;5093501;28;978;-69
2023/06/05 16:12:55;;;;;;;;;;;;;;;;;;5093738;28;844;-69
2023/06/05 16:15:20;;;;;;;;;;;;;;;;;;5075748;28;1358;-69
2023/06/05 16:17:46;;;;;;;;;;;;;;;;;;5058399;28;1910;-69
2023/06/05 16:20:12;;;;;;;;;;;;;;;;;;5093739;28;869;-69
2023/06/05 16:22:37;;;;;;;;;;;;;;;;;;5093191;28;956;-69
2023/06/05 16:25:03;;;;;;;;;;;;;;;;;;5092778;28;871;-69
2023/06/05 16:27:28;;;;;;;;;;;;;;;;;;5093309;28;860;-70
2023/06/05 16:29:54;;;;;;;;;;;;;;;;;;5075060;28;857;-67
2023/06/05 16:32:20;;;;;;;;;;;;;;;;;;5075069;28;897;-68
2023/06/05 16:34:45;;;;;;;;;;;;;;;;;;5074843;28;935;-68
2023/06/05 16:37:11;;;;;;;;;;;;;;;;;;5092655;28;1951;-68
2023/06/05 16:39:36;;;;;;;;;;;;;;;;;;5074348;28;1384;-69
2023/06/05 16:42:02;;;;;;;;;;;;;;;;;;5092347;28;813;-69
2023/06/05 16:44:28;;;;;;;;;;;;;;;;;;5092788;28;833;-69
2023/06/05 16:46:53;;;;;;;;;;;;;;;;;;5090093;28;1196;-69
2023/06/05 16:49:19;;;;;;;;;;;;;;;;;;5092429;28;1231;-69
2023/06/05 16:51:44;;;;;;;;;;;;;;;;;;5044355;28;1058;-69
2023/06/05 16:54:11;;;;;;;;;;;;;;;;;;5047098;28;1192;-69
2023/06/05 16:56:37;;;;;;;;;;;;;;;;;;5058530;28;1916;-69
2023/06/05 16:59:08;;;;;;;;;;;;;;;;;;5072092;28;1148;-69
2023/06/05 17:01:34;;;;;;;;;;;;;;;;;;5066908;28;1192;-70
2023/06/05 17:03:59;;;;;;;;;;;;;;;;;;5064627;28;1323;-69
2023/06/05 17:06:24;;;;;;;;;;;;;;;;;;5026984;28;1181;-69
2023/06/05 17:08:50;;;;;;;;;;;;;;;;;;5048077;28;1243;-69
2023/06/05 17:11:15;;;;;;;;;;;;;;;;;;5033375;28;1212;-69